createdAt,value
2023-06-17T00:01:29.343Z,5.70
2023-06-17T00:03:57.448Z,4.93
2023-06-17T00:06:25.348Z,5.40
2023-06-17T00:08:55.642Z,5.50
2023-06-17T00:11:23.725Z,5.90
2023-06-17T00:13:53.298Z,5.03
2023-06-17T00:16:22.158Z,5.57
2023-06-17T00:18:52.635Z,5.20
2023-06-17T00:21:20.545Z,5.23
2023-06-17T00:23:48.508Z,5.13
2023-06-17T00:26:16.459Z,5.40
2023-06-17T00:28:44.354Z,5.13
2023-06-17T00:31:13.668Z,5.30
2023-06-17T00:33:41.627Z,4.97
2023-06-17T00:36:09.748Z,5.50
2023-06-17T00:38:37.658Z,5.47
2023-06-17T00:41:05.541Z,4.93
2023-06-17T00:43:33.468Z,5.03
2023-06-17T00:46:01.537Z,5.00
2023-06-17T00:48:31.084Z,4.90
2023-06-17T00:51:02.984Z,4.40
2023-06-17T00:53:31.716Z,4.70
2023-06-17T00:56:00.171Z,4.67
2023-06-17T00:58:28.326Z,5.27
2023-06-17T01:00:56.728Z,5.30
2023-06-17T01:03:25.745Z,5.27
2023-06-17T01:06:00.330Z,5.33
2023-06-17T01:08:39.277Z,5.00
2023-06-17T01:11:10.630Z,5.00
2023-06-17T01:13:39.755Z,5.20
2023-06-17T01:16:07.873Z,4.60
2023-06-17T01:18:37.612Z,4.73
2023-06-17T01:21:07.162Z,5.23
2023-06-17T01:23:36.521Z,5.10
2023-06-17T01:26:06.348Z,4.63
2023-06-17T01:28:37.409Z,4.83
2023-06-17T01:31:05.972Z,4.80
2023-06-17T01:33:34.100Z,4.77
2023-06-17T01:36:05.462Z,5.07
2023-06-17T01:38:39.880Z,5.40
2023-06-17T01:41:11.851Z,4.73
2023-06-17T01:43:42.251Z,5.13
2023-06-17T01:46:12.499Z,4.50
2023-06-17T01:48:40.815Z,5.03
2023-06-17T01:51:09.138Z,4.87
2023-06-17T01:53:37.070Z,4.83
2023-06-17T01:58:33.664Z,4.90
2023-06-17T02:01:01.683Z,4.97
2023-06-17T02:03:29.985Z,5.00
2023-06-17T02:05:59.206Z,4.60
2023-06-17T02:08:27.993Z,5.50
2023-06-17T02:10:56.091Z,5.00
2023-06-17T02:13:24.092Z,4.60
2023-06-17T02:15:54.117Z,5.10
2023-06-17T02:18:23.212Z,4.70
2023-06-17T02:20:51.230Z,4.90
2023-06-17T02:23:19.214Z,5.07
2023-06-17T02:25:47.176Z,4.60
2023-06-17T02:28:15.138Z,4.27
2023-06-17T02:30:43.155Z,4.53
2023-06-17T02:33:13.979Z,4.43
2023-06-17T02:35:42.983Z,5.80
2023-06-17T02:38:10.965Z,5.03
2023-06-17T02:40:38.922Z,5.23
2023-06-17T02:43:06.892Z,4.87
2023-06-17T02:45:34.762Z,5.50
2023-06-17T02:48:03.541Z,5.03
2023-06-17T02:50:32.910Z,5.10
2023-06-17T02:53:01.606Z,5.07
2023-06-17T02:55:29.663Z,5.57
2023-06-17T02:57:57.641Z,5.13
2023-06-17T03:00:25.892Z,5.57
2023-06-17T03:02:54.095Z,5.23
2023-06-17T03:05:23.481Z,5.53
2023-06-17T03:07:52.953Z,5.17
2023-06-17T03:10:21.633Z,4.70
2023-06-17T03:12:49.856Z,5.60
2023-06-17T03:15:19.192Z,5.30
2023-06-17T03:17:47.444Z,5.50
2023-06-17T03:20:15.544Z,5.00
2023-06-17T03:22:46.912Z,5.40
2023-06-17T03:25:16.162Z,5.77
2023-06-17T03:27:44.007Z,5.33
2023-06-17T03:30:13.159Z,5.53
2023-06-17T03:32:41.059Z,5.70
2023-06-17T03:35:09.610Z,5.70
2023-06-17T03:37:37.523Z,6.17
2023-06-17T03:40:06.304Z,5.53
2023-06-17T03:42:35.572Z,5.90
2023-06-17T03:45:04.865Z,5.67
2023-06-17T03:47:32.800Z,5.57
2023-06-17T03:50:00.802Z,6.63
2023-06-17T03:52:28.803Z,6.27
2023-06-17T03:54:57.175Z,6.70
2023-06-17T03:57:25.069Z,6.80
2023-06-17T03:59:54.303Z,6.43
2023-06-17T04:02:22.248Z,6.73
2023-06-17T04:04:53.627Z,6.03
2023-06-17T04:07:21.833Z,7.10
2023-06-17T04:10:05.383Z,6.70
2023-06-17T04:12:34.857Z,7.47
2023-06-17T04:15:04.664Z,7.40
2023-06-17T04:17:32.571Z,6.97
2023-06-17T04:20:13.237Z,7.40
2023-06-17T04:22:42.171Z,7.70
2023-06-17T04:25:11.885Z,7.47
2023-06-17T04:27:40.653Z,7.47
2023-06-17T04:30:11.327Z,7.60
2023-06-17T04:32:40.848Z,7.73
2023-06-17T04:35:10.225Z,7.63
2023-06-17T04:37:38.159Z,7.63
2023-06-17T04:40:08.651Z,7.27
2023-06-17T04:42:38.556Z,7.90
2023-06-17T04:45:07.436Z,7.10
2023-06-17T04:47:36.722Z,7.87
2023-06-17T04:50:07.286Z,6.97
2023-06-17T04:52:35.167Z,7.37
2023-06-17T04:55:03.343Z,8.20
2023-06-17T04:57:31.328Z,7.30
2023-06-17T04:59:59.190Z,8.03
2023-06-17T05:02:27.143Z,7.17
2023-06-17T05:04:56.526Z,8.07
2023-06-17T05:07:24.617Z,7.77
2023-06-17T05:09:52.546Z,8.23
2023-06-17T05:12:20.407Z,7.67
2023-06-17T05:14:48.373Z,7.60
2023-06-17T05:17:16.428Z,7.13
2023-06-17T05:19:46.958Z,7.80
2023-06-17T05:22:16.221Z,8.13
2023-06-17T05:24:44.229Z,8.17
2023-06-17T05:27:12.347Z,8.60
2023-06-17T05:29:40.607Z,8.40
2023-06-17T05:32:08.713Z,7.67
2023-06-17T05:34:36.749Z,8.13
2023-06-17T05:37:05.117Z,8.10
2023-06-17T05:39:34.364Z,8.07
2023-06-17T05:42:02.296Z,7.63
2023-06-17T05:44:30.374Z,7.97
2023-06-17T05:46:58.336Z,8.07
2023-06-17T05:49:26.183Z,8.13
2023-06-17T05:51:54.083Z,7.77
2023-06-17T05:54:21.977Z,7.90
2023-06-17T05:56:51.951Z,8.17
2023-06-17T05:59:19.881Z,8.20
2023-06-17T06:01:47.861Z,8.20
2023-06-17T06:04:15.921Z,7.93
2023-06-17T06:06:43.923Z,7.77
2023-06-17T06:09:12.076Z,8.07
2023-06-17T06:11:40.094Z,7.90
2023-06-17T06:14:09.479Z,7.80
2023-06-17T06:16:37.522Z,8.00
2023-06-17T06:19:06.653Z,7.57
2023-06-17T06:21:35.776Z,7.40
2023-06-17T06:24:03.724Z,8.03
2023-06-17T06:26:31.666Z,7.57
2023-06-17T06:28:59.604Z,6.90
2023-06-17T06:31:28.904Z,7.80
2023-06-17T06:33:56.931Z,7.63
2023-06-17T06:36:24.863Z,7.37
2023-06-17T06:38:52.772Z,7.63
2023-06-17T06:41:20.921Z,6.97
2023-06-17T06:43:48.972Z,7.50
2023-06-17T06:46:17.111Z,7.70
2023-06-17T06:48:46.772Z,7.27
2023-06-17T06:51:14.679Z,8.17
2023-06-17T06:53:42.621Z,7.27
2023-06-17T06:56:10.548Z,7.50
2023-06-17T06:58:38.485Z,7.27
2023-06-17T07:01:06.450Z,6.83
2023-06-17T07:03:34.488Z,7.60
2023-06-17T07:06:04.693Z,7.43
2023-06-17T07:08:32.656Z,7.30
2023-06-17T07:11:00.584Z,7.30
2023-06-17T07:13:28.928Z,6.87
2023-06-17T07:15:56.797Z,7.50
2023-06-17T07:18:25.310Z,7.23
2023-06-17T07:20:53.242Z,6.63
2023-06-17T07:23:22.564Z,6.63
2023-06-17T07:25:52.928Z,6.77
2023-06-17T07:28:23.120Z,7.10
2023-06-17T07:30:51.747Z,6.27
2023-06-17T07:33:19.759Z,6.27
2023-06-17T07:35:47.766Z,6.63
2023-06-17T07:38:15.714Z,6.70
2023-06-17T07:40:47.815Z,6.40
2023-06-17T07:43:15.824Z,6.57
2023-06-17T07:45:43.768Z,6.30
2023-06-17T07:48:11.696Z,5.80
2023-06-17T07:50:39.613Z,5.67
2023-06-17T07:53:07.492Z,5.33
2023-06-17T07:55:35.367Z,5.80
2023-06-17T07:58:04.632Z,5.83
2023-06-17T08:00:32.681Z,5.90
2023-06-17T08:03:00.974Z,5.43
2023-06-17T08:05:28.960Z,5.43
2023-06-17T08:07:57.100Z,5.30
2023-06-17T08:10:25.081Z,5.60
2023-06-17T08:12:53.081Z,4.60
2023-06-17T08:15:23.331Z,4.60
2023-06-17T08:17:51.906Z,5.33
2023-06-17T08:20:20.141Z,5.17
2023-06-17T08:22:48.243Z,5.17
2023-06-17T08:25:16.189Z,4.47
2023-06-17T08:27:48.678Z,5.10
2023-06-17T08:30:16.843Z,5.00
2023-06-17T08:32:46.227Z,4.50
2023-06-17T08:35:15.330Z,4.60
2023-06-17T08:37:43.440Z,4.77
2023-06-17T08:40:12.113Z,4.57
2023-06-17T08:42:40.979Z,4.27
2023-06-17T08:45:10.083Z,4.60
2023-06-17T08:47:38.376Z,5.17
2023-06-17T08:50:08.920Z,5.00
2023-06-17T08:52:40.267Z,4.50
2023-06-17T08:55:09.292Z,4.27
2023-06-17T08:57:37.565Z,4.40
2023-06-17T09:00:07.313Z,4.37
2023-06-17T09:02:37.731Z,4.80
2023-06-17T09:05:13.728Z,4.87
2023-06-17T09:07:43.462Z,4.60
2023-06-17T09:10:11.649Z,4.43
2023-06-17T09:12:40.035Z,4.70
2023-06-17T09:15:09.321Z,4.67
2023-06-17T09:17:39.910Z,4.30
2023-06-17T09:20:13.905Z,5.13
2023-06-17T09:22:42.826Z,4.60
2023-06-17T09:25:13.893Z,4.40
2023-06-17T09:28:03.094Z,4.60
2023-06-17T09:30:43.058Z,4.70
2023-06-17T09:33:19.536Z,4.67
2023-06-17T09:35:49.031Z,4.50
2023-06-17T09:38:18.275Z,4.57
2023-06-17T09:40:49.331Z,4.60
2023-06-17T09:43:27.662Z,5.20
2023-06-17T09:46:00.387Z,5.00
2023-06-17T09:48:32.853Z,4.80
2023-06-17T09:51:06.773Z,4.70
2023-06-17T09:53:38.512Z,4.50
2023-06-17T09:56:12.092Z,4.35
2023-06-17T09:58:43.725Z,4.03
2023-06-17T10:01:13.337Z,3.80
2023-06-17T10:03:41.793Z,4.30
2023-06-17T10:06:12.264Z,4.10
2023-06-17T10:08:43.009Z,4.30
2023-06-17T10:11:13.841Z,4.20
2023-06-17T10:13:43.856Z,4.28
2023-06-17T10:16:14.640Z,4.50
2023-06-17T10:18:45.509Z,3.75
2023-06-17T10:21:15.871Z,4.15
2023-06-17T10:23:45.187Z,3.47
2023-06-17T10:26:14.252Z,3.67
2023-06-17T10:28:46.810Z,4.22
2023-06-17T10:31:28.573Z,4.03
2023-06-17T10:33:58.657Z,3.90
2023-06-17T10:36:29.280Z,3.65
2023-06-17T10:38:58.325Z,3.55
2023-06-17T10:42:00.376Z,3.40
2023-06-17T10:44:44.261Z,3.70
2023-06-17T10:47:22.335Z,3.70
2023-06-17T10:49:51.064Z,4.15
2023-06-17T10:52:21.666Z,3.72
2023-06-17T10:54:52.939Z,3.80
2023-06-17T10:57:34.468Z,4.35
2023-06-17T11:00:08.029Z,4.20
2023-06-17T11:02:37.184Z,3.40
2023-06-17T11:05:06.230Z,2.95
2023-06-17T11:07:35.881Z,4.20
2023-06-17T11:10:04.479Z,3.30
2023-06-17T11:12:35.261Z,3.92
2023-06-17T11:15:04.614Z,3.50
2023-06-17T11:17:32.827Z,3.58
2023-06-17T11:20:00.909Z,3.80
2023-06-17T11:22:28.887Z,4.22
2023-06-17T11:24:59.311Z,3.70
2023-06-17T11:27:27.357Z,4.07
2023-06-17T11:29:55.485Z,3.58
2023-06-17T11:32:23.617Z,3.90
2023-06-17T11:34:53.061Z,3.37
2023-06-17T11:37:21.306Z,3.67
2023-06-17T11:39:49.383Z,3.50
2023-06-17T11:42:19.017Z,3.40
2023-06-17T11:44:47.349Z,3.90
2023-06-17T11:47:15.794Z,3.60
2023-06-17T11:49:43.924Z,3.70
2023-06-17T11:52:12.847Z,3.60
2023-06-17T11:54:49.613Z,3.30
2023-06-17T11:57:22.649Z,3.70
2023-06-17T11:59:52.028Z,3.63
2023-06-17T12:02:20.865Z,3.90
2023-06-17T12:04:49.362Z,3.90
2023-06-17T12:07:17.526Z,3.40
2023-06-17T12:09:52.968Z,3.60
2023-06-17T12:12:29.784Z,3.37
2023-06-17T12:15:10.923Z,3.37
2023-06-17T12:17:45.315Z,3.50
2023-06-17T12:20:15.704Z,3.60
2023-06-17T12:22:44.370Z,3.37
2023-06-17T12:25:13.279Z,3.53
2023-06-17T12:27:43.782Z,3.77
2023-06-17T12:30:14.971Z,3.23
2023-06-17T12:32:43.951Z,3.50
2023-06-17T12:35:12.897Z,2.87
2023-06-17T12:37:43.310Z,3.80
2023-06-17T12:40:12.500Z,3.30
2023-06-17T12:42:41.944Z,3.53
2023-06-17T12:45:10.829Z,4.17
2023-06-17T12:47:38.854Z,3.50
2023-06-17T12:50:08.041Z,3.63
2023-06-17T12:52:36.849Z,3.23
2023-06-17T12:55:05.918Z,3.30
2023-06-17T12:57:34.023Z,3.37
2023-06-17T13:00:05.373Z,3.00
2023-06-17T13:02:36.720Z,2.90
2023-06-17T13:05:06.287Z,3.40
2023-06-17T13:07:34.342Z,3.20
2023-06-17T13:10:02.253Z,3.70
2023-06-17T13:12:30.215Z,2.90
2023-06-17T13:14:58.179Z,3.27
2023-06-17T13:17:27.533Z,2.97
2023-06-17T13:19:55.529Z,3.17
2023-06-17T13:22:23.502Z,2.97
2023-06-17T13:24:52.196Z,3.30
2023-06-17T13:27:20.321Z,3.37
2023-06-17T13:29:48.412Z,3.23
2023-06-17T13:32:19.331Z,3.00
2023-06-17T13:34:49.083Z,3.50
2023-06-17T13:37:17.145Z,3.40
2023-06-17T13:39:45.939Z,3.70
2023-06-17T13:42:14.339Z,3.57
2023-06-17T13:44:45.284Z,3.30
2023-06-17T13:47:13.419Z,3.10
2023-06-17T13:49:41.301Z,3.60
2023-06-17T13:52:11.909Z,3.47
2023-06-17T13:54:39.821Z,4.53
2023-06-17T13:57:08.950Z,3.60
2023-06-17T13:59:37.578Z,3.80
2023-06-17T14:02:05.794Z,2.90
2023-06-17T14:04:33.782Z,3.27
2023-06-17T14:07:01.797Z,3.50
2023-06-17T14:09:31.215Z,3.13
2023-06-17T14:11:59.121Z,2.67
2023-06-17T14:14:27.056Z,2.60
2023-06-17T14:16:57.536Z,2.80
2023-06-17T14:19:25.525Z,3.27
2023-06-17T14:21:58.166Z,2.90
2023-06-17T14:24:26.396Z,2.73
2023-06-17T14:27:27.298Z,3.17
2023-06-17T14:29:55.573Z,3.03
2023-06-17T14:32:23.517Z,3.03
2023-06-17T14:34:54.540Z,2.93
2023-06-17T14:37:22.609Z,3.17
2023-06-17T14:39:50.668Z,3.37
2023-06-17T14:42:19.940Z,3.70
2023-06-17T14:44:48.516Z,2.77
2023-06-17T14:47:18.412Z,3.00
2023-06-17T14:49:48.595Z,2.80
2023-06-17T14:52:16.764Z,3.07
2023-06-17T14:54:44.756Z,2.93
2023-06-17T14:57:13.606Z,2.90
2023-06-17T14:59:43.624Z,3.00
2023-06-17T15:02:36.559Z,3.17
2023-06-17T15:05:04.678Z,3.17
2023-06-17T15:07:32.560Z,2.90
2023-06-17T15:10:00.519Z,2.70
2023-06-17T15:12:28.412Z,3.10
2023-06-17T15:14:57.719Z,2.70
2023-06-17T15:17:26.099Z,2.70
2023-06-17T15:19:54.144Z,3.30
2023-06-17T15:22:22.273Z,3.23
2023-06-17T15:24:50.323Z,3.10
2023-06-17T15:27:18.307Z,3.00
2023-06-17T15:29:46.263Z,3.33
2023-06-17T15:32:15.664Z,2.90
2023-06-17T15:34:44.147Z,2.70
2023-06-17T15:37:12.233Z,3.00
2023-06-17T15:39:40.148Z,2.40
2023-06-17T15:42:08.589Z,2.97
2023-06-17T15:44:36.623Z,2.57
2023-06-17T15:47:05.026Z,3.13
2023-06-17T15:49:35.666Z,3.10
2023-06-17T15:52:04.002Z,3.07
2023-06-17T15:54:31.978Z,3.07
2023-06-17T15:57:02.006Z,3.33
2023-06-17T15:59:31.345Z,3.13
2023-06-17T16:01:59.315Z,3.33
2023-06-17T16:04:36.680Z,2.83
2023-06-17T16:07:06.679Z,2.87
2023-06-17T16:09:36.953Z,3.30
2023-06-17T16:12:05.859Z,2.70
2023-06-17T16:14:35.144Z,3.00
2023-06-17T16:17:04.974Z,3.23
2023-06-17T16:19:33.273Z,3.47
2023-06-17T16:22:03.033Z,2.60
2023-06-17T16:24:31.168Z,2.83
2023-06-17T16:26:59.946Z,3.20
2023-06-17T16:29:28.197Z,3.50
2023-06-17T16:31:56.110Z,3.30
2023-06-17T16:34:24.325Z,3.53
2023-06-17T16:36:52.502Z,3.50
2023-06-17T16:39:22.174Z,3.47
2023-06-17T16:41:50.283Z,3.50
2023-06-17T16:44:18.285Z,3.40
2023-06-17T16:46:47.641Z,2.83
2023-06-17T16:49:15.721Z,2.97
2023-06-17T16:51:43.644Z,2.87
2023-06-17T16:54:11.602Z,3.60
2023-06-17T16:56:40.921Z,3.33
2023-06-17T16:59:08.864Z,3.07
2023-06-17T17:01:36.862Z,3.40
2023-06-17T17:04:11.209Z,3.10
2023-06-17T17:06:39.235Z,3.43
2023-06-17T17:09:07.342Z,2.73
2023-06-17T17:11:35.271Z,3.00
2023-06-17T17:14:04.778Z,3.63
2023-06-17T17:16:32.779Z,3.30
2023-06-17T17:19:00.761Z,3.50
2023-06-17T17:21:28.964Z,3.33
2023-06-17T17:23:56.895Z,4.70
2023-06-17T17:26:25.028Z,4.10
2023-06-17T17:28:52.912Z,4.23
2023-06-17T17:31:22.233Z,4.20
2023-06-17T17:33:52.103Z,3.80
2023-06-17T17:36:20.769Z,4.10
2023-06-17T17:38:48.888Z,3.50
2023-06-17T17:41:16.863Z,3.40
2023-06-17T17:43:44.928Z,3.13
2023-06-17T17:46:12.987Z,3.50
2023-06-17T17:48:42.245Z,3.40
2023-06-17T17:51:10.178Z,3.40
2023-06-17T17:53:38.141Z,3.50
2023-06-17T17:56:06.344Z,3.97
2023-06-17T17:58:35.979Z,4.40
2023-06-17T18:01:04.780Z,3.73
2023-06-17T18:03:32.821Z,9.07
2023-06-17T18:06:02.259Z,37.00
2023-06-17T18:08:30.377Z,19.87
2023-06-17T18:10:58.504Z,11.47
2023-06-17T18:13:28.103Z,10.90
2023-06-17T18:15:57.557Z,17.50
2023-06-17T18:18:25.527Z,31.60
2023-06-17T18:20:53.397Z,8.63
2023-06-17T18:23:22.700Z,9.53
2023-06-17T18:25:50.764Z,6.97
2023-06-17T18:28:18.662Z,5.33
2023-06-17T18:30:46.698Z,5.77
2023-06-17T18:33:14.686Z,5.10
2023-06-17T18:35:42.637Z,5.50
2023-06-17T18:38:10.637Z,4.27
2023-06-17T18:40:39.909Z,4.07
2023-06-17T18:43:08.736Z,4.40
2023-06-17T18:45:36.672Z,4.00
2023-06-17T18:48:05.017Z,4.20
2023-06-17T18:50:33.218Z,3.90
2023-06-17T18:53:01.186Z,4.57
2023-06-17T18:55:31.191Z,3.73
2023-06-17T18:58:00.904Z,3.90
2023-06-17T19:00:31.700Z,4.57
2023-06-17T19:02:59.677Z,4.17
2023-06-17T19:05:27.698Z,4.20
2023-06-17T19:07:55.708Z,3.80
2023-06-17T19:10:23.986Z,4.10
2023-06-17T19:12:52.100Z,4.20
2023-06-17T19:15:21.754Z,4.10
2023-06-17T19:17:49.804Z,4.43
2023-06-17T19:20:17.921Z,4.73
2023-06-17T19:22:46.138Z,4.97
2023-06-17T19:25:14.017Z,5.10
2023-06-17T19:27:41.968Z,4.70
2023-06-17T19:30:10.636Z,6.00
2023-06-17T19:32:40.000Z,5.80
2023-06-17T19:35:08.598Z,5.93
2023-06-17T19:37:37.679Z,5.67
2023-06-17T19:40:06.478Z,5.33
2023-06-17T19:42:34.387Z,5.10
2023-06-17T19:45:02.360Z,5.07
2023-06-17T19:47:30.364Z,5.00
2023-06-17T19:50:00.453Z,5.60
2023-06-17T19:52:28.355Z,5.43
2023-06-17T19:54:56.570Z,5.63
2023-06-17T19:57:24.499Z,6.30
2023-06-17T19:59:52.488Z,5.77
2023-06-17T20:02:21.138Z,6.20
2023-06-17T20:04:49.188Z,6.07
2023-06-17T20:07:19.858Z,6.73
2023-06-17T20:09:47.968Z,5.73
2023-06-17T20:12:16.591Z,5.67
2023-06-17T20:14:45.575Z,5.60
2023-06-17T20:17:13.649Z,5.20
2023-06-17T20:19:41.828Z,5.30
2023-06-17T20:22:09.753Z,5.23
2023-06-17T20:24:38.998Z,6.10
2023-06-17T20:27:07.818Z,5.23
2023-06-17T20:29:36.180Z,5.17
2023-06-17T20:32:04.252Z,5.43
2023-06-17T20:34:32.191Z,4.83
2023-06-17T20:37:00.102Z,5.17
2023-06-17T20:39:27.989Z,4.90
2023-06-17T20:41:57.255Z,5.40
2023-06-17T20:44:25.241Z,5.40
2023-06-17T20:46:58.732Z,5.90
2023-06-17T20:49:27.158Z,5.37
2023-06-17T20:51:55.706Z,5.23
2023-06-17T20:54:23.666Z,5.30
2023-06-17T20:56:51.639Z,5.27
2023-06-17T20:59:22.409Z,4.53
2023-06-17T21:01:50.389Z,4.90
2023-06-17T21:04:18.609Z,5.37
2023-06-17T21:06:46.557Z,5.07
2023-06-17T21:09:14.725Z,4.83
2023-06-17T21:11:42.736Z,4.73
2023-06-17T21:14:10.818Z,5.07
2023-06-17T21:16:40.092Z,5.10
2023-06-17T21:19:08.033Z,4.47
2023-06-17T21:21:36.062Z,4.90
2023-06-17T21:24:04.137Z,4.80
2023-06-17T21:26:32.143Z,4.73
2023-06-17T21:29:00.126Z,5.10
2023-06-17T21:31:28.034Z,5.00
2023-06-17T21:33:57.311Z,4.47
2023-06-17T21:36:25.296Z,4.83
2023-06-17T21:38:53.194Z,5.13
2023-06-17T21:41:21.263Z,5.47
2023-06-17T21:43:49.133Z,5.07
2023-06-17T21:46:17.409Z,6.55
2023-06-17T21:48:45.464Z,6.13
2023-06-17T21:51:14.707Z,5.27
2023-06-17T21:53:42.733Z,6.13
2023-06-17T21:56:11.561Z,5.87
2023-06-17T21:58:40.213Z,5.77
2023-06-17T22:01:08.174Z,6.40
2023-06-17T22:03:36.276Z,6.03
2023-06-17T22:06:04.560Z,5.80
2023-06-17T22:08:42.101Z,5.33
2023-06-17T22:11:12.181Z,6.20
2023-06-17T22:13:40.418Z,5.27
2023-06-17T22:16:08.518Z,4.90
2023-06-17T22:18:36.533Z,5.87
2023-06-17T22:21:04.652Z,5.60
2023-06-17T22:23:33.966Z,6.30
2023-06-17T22:26:01.841Z,5.63
2023-06-17T22:28:30.214Z,6.07
2023-06-17T22:30:58.123Z,6.40
2023-06-17T22:33:26.132Z,5.83
2023-06-17T22:35:54.121Z,6.33
2023-06-17T22:38:22.116Z,5.77
2023-06-17T22:40:52.568Z,6.53
2023-06-17T22:43:20.952Z,5.60
2023-06-17T22:45:49.655Z,6.20
2023-06-17T22:48:17.878Z,5.53
2023-06-17T22:50:45.946Z,6.10
2023-06-17T22:53:14.084Z,7.00
2023-06-17T22:55:42.299Z,6.37
2023-06-17T22:58:11.860Z,6.30
2023-06-17T23:00:39.896Z,5.67
2023-06-17T23:03:08.250Z,6.70
2023-06-17T23:05:36.259Z,5.60
2023-06-17T23:08:05.582Z,6.07
2023-06-17T23:10:33.643Z,6.13
2023-06-17T23:13:01.550Z,6.50
2023-06-17T23:15:30.827Z,6.27
2023-06-17T23:17:58.922Z,6.33
2023-06-17T23:20:27.003Z,6.63
2023-06-17T23:22:55.159Z,6.43
2023-06-17T23:25:27.227Z,6.33
2023-06-17T23:27:55.368Z,6.23
2023-06-17T23:30:24.096Z,6.10
2023-06-17T23:32:53.807Z,6.57
2023-06-17T23:35:21.733Z,6.73
2023-06-17T23:37:49.861Z,6.43
2023-06-17T23:40:17.784Z,6.53
2023-06-17T23:42:45.625Z,7.10
2023-06-17T23:45:15.154Z,6.80
2023-06-17T23:47:43.590Z,6.37
2023-06-17T23:50:13.068Z,6.83
2023-06-17T23:52:41.012Z,6.67
2023-06-17T23:55:09.693Z,6.57
2023-06-17T23:57:37.712Z,6.80
